Time;durP1;ratioP1;P1;durP2;ratioP2;P2;SDS_P1;SDS_P2;PMS_P1;PMS_P2;Temp;Humidity;BMP_temperature;BMP_pressure;BME280_temperature;BME280_humidity;BME280_pressure;Samples;Min_cycle;Max_cycle;Signal;HPM_P1;HPM_P2
2023/06/13 00:02:28;;;;;;;9.20;5.37;;;;;;;18.74;45.36;100206.13;5070735;28;20301;-65
2023/06/13 00:04:55;;;;;;;7.10;4.87;;;;;;;18.60;45.69;100208.22;5077618;28;20201;-65
2023/06/13 00:07:22;;;;;;;7.87;4.97;;;;;;;18.63;45.58;100202.81;5071650;28;20595;-65
2023/06/13 00:09:48;;;;;;;5.97;4.70;;;;;;;18.59;45.52;100206.47;5072013;28;20281;-65
2023/06/13 00:12:20;;;;;;;5.93;4.77;;;;;;;18.64;45.29;100216.19;5070433;28;20196;-65
2023/06/13 00:14:51;;;;;;;9.20;4.77;;;;;;;18.62;45.43;100207.31;5084093;28;20433;-65
2023/06/13 00:17:22;;;;;;;7.60;4.80;;;;;;;18.59;45.23;100212.72;5077534;28;20635;-65
2023/06/13 00:19:49;;;;;;;8.83;4.77;;;;;;;18.49;45.59;100213.84;5072421;28;20194;-65
2023/06/13 00:22:15;;;;;;;7.23;4.80;;;;;;;18.45;45.26;100213.03;5072869;28;20194;-65
2023/06/13 00:24:42;;;;;;;9.07;5.13;;;;;;;18.45;45.67;100218.38;5071497;28;20190;-65
2023/06/13 00:27:08;;;;;;;7.70;5.20;;;;;;;18.41;45.59;100224.72;5069774;28;20217;-65
2023/06/13 00:29:34;;;;;;;7.60;5.10;;;;;;;18.37;45.58;100219.44;5085062;28;20288;-66
2023/06/13 00:32:01;;;;;;;6.60;4.87;;;;;;;18.37;45.51;100225.69;5073262;28;20290;-65
2023/06/13 00:34:27;;;;;;;7.53;5.40;;;;;;;18.38;45.72;100223.88;5069475;28;20218;-65
2023/06/13 00:36:55;;;;;;;8.40;5.00;;;;;;;18.14;46.29;100220.81;5067666;28;20709;-65
2023/06/13 00:39:22;;;;;;;10.13;5.33;;;;;;;18.06;46.55;100230.81;5073189;28;20222;-65
2023/06/13 00:41:48;;;;;;;7.17;5.00;;;;;;;18.22;46.12;100228.69;5076202;28;20285;-66
2023/06/13 00:44:15;;;;;;;8.00;4.93;;;;;;;18.20;46.04;100221.59;5077706;28;20229;-65
2023/06/13 00:46:43;;;;;;;7.93;5.07;;;;;;;18.31;45.54;100216.88;5070720;28;20218;-65
2023/06/13 00:49:09;;;;;;;6.73;5.13;;;;;;;18.25;45.95;100223.25;5069114;28;20198;-65
2023/06/13 00:51:40;;;;;;;7.10;4.97;;;;;;;18.29;45.69;100219.59;5056367;28;20198;-65
2023/06/13 00:54:10;;;;;;;7.33;4.87;;;;;;;18.11;46.39;100226.25;5070571;28;20287;-65
2023/06/13 00:56:37;;;;;;;9.77;4.97;;;;;;;18.02;46.74;100229.09;5070183;28;20253;-65
2023/06/13 00:59:04;;;;;;;7.17;5.10;;;;;;;17.85;47.15;100232.09;5075406;28;20221;-65
2023/06/13 01:01:31;;;;;;;8.87;5.20;;;;;;;17.83;47.04;100227.66;5059590;28;20198;-65
2023/06/13 01:03:59;;;;;;;7.17;4.73;;;;;;;17.80;47.31;100230.41;5068269;28;20195;-65
2023/06/13 01:06:30;;;;;;;13.13;5.10;;;;;;;17.73;47.43;100226.97;5068142;28;20237;-65
2023/06/13 01:09:00;;;;;;;10.13;5.50;;;;;;;17.72;47.38;100229.69;5070627;28;20203;-65
2023/06/13 01:11:57;;;;;;;10.70;5.67;;;;;;;17.85;46.78;100218.69;5069524;28;20197;-65
2023/06/13 01:14:31;;;;;;;12.20;5.20;;;;;;;17.80;47.04;100227.72;5082622;28;20694;-65
2023/06/13 01:17:08;;;;;;;7.77;4.77;;;;;;;17.66;47.42;100232.44;5068086;28;20320;-66
2023/06/13 01:19:41;;;;;;;8.67;5.13;;;;;;;17.45;48.04;100221.19;5071836;28;20281;-65
2023/06/13 01:22:16;;;;;;;8.00;5.13;;;;;;;17.39;48.29;100218.59;5069703;28;20245;-65
2023/06/13 01:25:08;;;;;;;10.03;5.57;;;;;;;17.60;47.65;100222.69;5066875;28;20200;-65
2023/06/13 01:27:36;;;;;;;9.93;5.23;;;;;;;17.61;47.65;100224.50;5073179;28;20297;-65
2023/06/13 01:30:04;;;;;;;9.43;5.43;;;;;;;17.66;47.49;100222.59;5069365;28;20277;-65
2023/06/13 01:32:33;;;;;;;5.27;4.67;;;;;;;17.70;46.97;100220.78;5068143;28;20198;-66
2023/06/13 01:35:00;;;;;;;7.57;5.17;;;;;;;17.75;47.07;100213.53;5065858;28;20636;-65
2023/06/13 01:37:27;;;;;;;11.17;5.33;;;;;;;17.66;47.03;100213.69;5063465;28;20225;-65
2023/06/13 01:39:53;;;;;;;14.03;5.40;;;;;;;17.77;46.73;100209.94;5049187;28;20661;-65
2023/06/13 01:42:20;;;;;;;7.33;5.17;;;;;;;17.71;46.86;100209.16;5069949;28;20685;-65
2023/06/13 01:44:47;;;;;;;8.53;5.30;;;;;;;17.81;46.57;100213.44;5073452;28;20194;-66
2023/06/13 01:47:26;;;;;;;10.03;5.17;;;;;;;17.67;46.83;100210.13;5074947;28;20283;-65
2023/06/13 01:50:11;;;;;;;11.00;5.03;;;;;;;17.59;46.83;100217.38;5066708;28;20202;-65
2023/06/13 01:52:52;;;;;;;9.03;5.30;;;;;;;17.50;47.65;100213.06;5057236;28;20237;-65
2023/06/13 01:55:30;;;;;;;11.87;6.50;;;;;;;17.43;47.94;100206.94;5068778;28;20592;-65
2023/06/13 01:58:22;;;;;;;11.47;6.37;;;;;;;17.56;47.58;100207.59;5073958;28;20224;-65
2023/06/13 02:00:51;;;;;;;14.37;5.70;;;;;;;17.51;47.73;100209.47;5056166;28;20193;-65
2023/06/13 02:03:18;;;;;;;11.33;5.83;;;;;;;17.48;47.86;100210.41;5069952;28;20366;-65
2023/06/13 02:05:46;;;;;;;10.53;6.27;;;;;;;17.57;47.49;100205.78;5068856;28;20200;-65
2023/06/13 02:08:13;;;;;;;8.80;5.80;;;;;;;17.57;47.70;100212.03;5067922;28;20216;-65
2023/06/13 02:10:39;;;;;;;9.83;6.17;;;;;;;17.41;48.38;100208.75;5080421;28;20194;-65
2023/06/13 02:13:05;;;;;;;9.53;5.77;;;;;;;17.33;48.47;100207.13;5080637;28;20221;-65
2023/06/13 02:15:32;;;;;;;8.57;5.60;;;;;;;17.34;48.55;100206.22;5078834;28;20250;-65
2023/06/13 02:17:58;;;;;;;8.77;6.10;;;;;;;17.27;48.79;100205.44;5066395;28;20573;-65
2023/06/13 02:20:25;;;;;;;11.63;6.20;;;;;;;17.31;48.69;100206.28;5068658;28;20251;-66
2023/06/13 02:22:51;;;;;;;7.17;5.37;;;;;;;17.39;47.92;100210.56;5067880;28;20583;-65
2023/06/13 02:25:18;;;;;;;8.70;6.33;;;;;;;17.36;48.71;100215.09;5081041;28;20269;-65
2023/06/13 02:27:44;;;;;;;9.03;5.33;;;;;;;17.35;48.59;100205.31;5076487;28;20213;-65
2023/06/13 02:30:11;;;;;;;7.40;5.60;;;;;;;17.31;48.92;100207.16;5068407;28;20208;-65
2023/06/13 02:32:39;;;;;;;6.87;4.93;;;;;;;17.27;49.06;100207.25;5067057;28;20194;-66
2023/06/13 02:35:09;;;;;;;6.73;5.40;;;;;;;17.20;49.36;100209.09;5061106;28;20223;-65
2023/06/13 02:37:36;;;;;;;6.10;5.07;;;;;;;17.12;49.43;100208.34;5073422;28;20209;-65
2023/06/13 02:40:06;;;;;;;8.27;5.40;;;;;;;16.99;50.35;100206.78;5082994;28;20596;-65
2023/06/13 02:42:32;;;;;;;10.30;5.70;;;;;;;16.88;50.49;100206.97;5069600;28;20201;-65
2023/06/13 02:44:59;;;;;;;8.23;5.63;;;;;;;16.89;50.98;100203.38;5070192;28;20190;-65
2023/06/13 02:47:26;;;;;;;8.33;5.77;;;;;;;16.94;50.66;100203.31;5068220;28;20218;-65
2023/06/13 02:49:52;;;;;;;9.17;6.67;;;;;;;16.96;50.92;100204.16;5068397;28;20577;-65
2023/06/13 02:52:21;;;;;;;9.77;6.30;;;;;;;16.86;50.75;100200.75;5076186;28;20600;-65
2023/06/13 02:54:48;;;;;;;10.13;6.37;;;;;;;16.96;50.91;100201.50;5077013;28;20221;-65
2023/06/13 02:57:14;;;;;;;12.50;6.77;;;;;;;16.82;51.43;100207.06;5069251;28;20218;-65
2023/06/13 02:59:42;;;;;;;10.53;7.27;;;;;;;16.82;51.32;100212.41;5066983;28;20222;-65
2023/06/13 03:02:08;;;;;;;13.03;7.00;;;;;;;16.77;51.77;100211.56;5064928;28;20198;-65
2023/06/13 03:04:36;;;;;;;9.77;5.97;;;;;;;16.74;52.14;100211.63;5063375;28;20190;-65
2023/06/13 03:07:05;;;;;;;12.07;5.40;;;;;;;16.61;52.09;100211.75;5081438;28;20253;-65
2023/06/13 03:09:32;;;;;;;8.53;5.37;;;;;;;16.51;52.84;100220.81;5076872;28;20193;-65
2023/06/13 03:11:59;;;;;;;5.87;4.93;;;;;;;16.48;53.26;100219.97;5061443;28;20222;-65
2023/06/13 03:14:26;;;;;;;7.43;4.83;;;;;;;16.51;53.15;100214.59;5076123;28;20667;-65
2023/06/13 03:16:52;;;;;;;8.63;5.47;;;;;;;16.57;52.94;100209.16;5073973;28;20233;-65
2023/06/13 03:19:19;;;;;;;8.67;5.60;;;;;;;16.48;53.15;100220.88;5077086;28;20278;-65
2023/06/13 03:21:46;;;;;;;8.97;5.00;;;;;;;16.44;53.52;100211.13;5081388;28;20209;-65
2023/06/13 03:24:13;;;;;;;6.57;4.57;;;;;;;16.39;53.66;100215.63;5078779;28;20207;-65
2023/06/13 03:26:40;;;;;;;9.73;4.77;;;;;;;16.27;53.93;100219.34;5049620;28;20222;-65
2023/06/13 03:29:07;;;;;;;8.80;5.20;;;;;;;16.40;53.70;100221.84;5067897;28;20202;-65
2023/06/13 03:31:33;;;;;;;7.23;4.83;;;;;;;16.44;52.74;100219.16;5067006;28;20194;-65
2023/06/13 03:34:00;;;;;;;8.83;5.03;;;;;;;16.46;53.27;100208.44;5079419;28;20225;-65
2023/06/13 03:36:26;;;;;;;6.13;4.83;;;;;;;16.45;53.59;100210.22;5068440;28;20230;-65
2023/06/13 03:38:53;;;;;;;7.13;5.23;;;;;;;16.46;53.36;100214.66;5067291;28;20625;-65
2023/06/13 03:41:19;;;;;;;7.83;5.10;;;;;;;16.54;53.38;100211.88;5066419;28;20201;-65
2023/06/13 03:43:46;;;;;;;5.80;4.73;;;;;;;16.45;53.61;100214.69;5073691;28;20202;-65
2023/06/13 03:46:12;;;;;;;6.27;4.93;;;;;;;16.52;53.54;100208.34;5049783;28;20249;-65
2023/06/13 03:48:41;;;;;;;8.57;5.00;;;;;;;16.50;53.13;100208.38;5075640;28;20202;-65
2023/06/13 03:51:08;;;;;;;7.23;4.70;;;;;;;16.48;53.58;100214.63;5084182;28;20200;-65
2023/06/13 03:53:34;;;;;;;7.87;5.07;;;;;;;16.45;53.80;100204.88;5067487;28;20194;-65
2023/06/13 03:56:02;;;;;;;7.03;4.67;;;;;;;16.70;52.84;100202.75;5067237;28;20226;-65
2023/06/13 03:58:29;;;;;;;5.77;4.40;;;;;;;16.70;52.91;100208.09;5080129;28;20190;-65
2023/06/13 04:00:55;;;;;;;6.47;4.87;;;;;;;16.78;52.66;100200.84;5079718;28;20226;-65
2023/06/13 04:03:22;;;;;;;7.40;5.33;;;;;;;16.74;52.94;100207.16;5075268;28;20190;-65
2023/06/13 04:05:48;;;;;;;6.13;5.07;;;;;;;16.68;53.17;100206.34;5077990;28;20296;-65
2023/06/13 04:08:15;;;;;;;6.27;4.70;;;;;;;16.71;52.87;100214.34;5071495;28;20194;-65
2023/06/13 04:10:41;;;;;;;5.60;4.60;;;;;;;16.70;53.12;100213.44;5071388;28;20206;-65
2023/06/13 04:13:08;;;;;;;6.00;4.60;;;;;;;16.79;53.03;100210.63;5069720;28;20190;-65
2023/06/13 04:15:34;;;;;;;6.27;4.40;;;;;;;16.90;52.46;100205.16;5088556;28;20217;-65
2023/06/13 04:18:01;;;;;;;6.00;4.33;;;;;;;16.93;52.51;100213.13;5082458;28;20237;-65
2023/06/13 04:20:27;;;;;;;8.63;4.90;;;;;;;17.06;52.07;100219.16;5076235;28;20202;-65
2023/06/13 04:22:54;;;;;;;8.17;4.63;;;;;;;17.08;52.37;100220.91;5069014;28;20209;-65
2023/06/13 04:25:21;;;;;;;9.03;4.97;;;;;;;17.12;52.02;100219.06;5066410;28;20194;-65
2023/06/13 04:27:48;;;;;;;7.07;4.37;;;;;;;17.13;51.98;100221.72;5065136;28;20341;-65
2023/06/13 04:30:15;;;;;;;10.20;4.60;;;;;;;17.16;51.85;100231.47;5069951;28;20221;-65
2023/06/13 04:32:45;;;;;;;5.30;4.63;;;;;;;17.20;52.13;100233.19;5057927;28;20205;-65
2023/06/13 04:35:16;;;;;;;8.57;4.53;;;;;;;17.27;51.47;100239.34;5069159;28;20221;-65
2023/06/13 04:37:45;;;;;;;6.63;4.53;;;;;;;17.28;51.74;100238.44;5067655;28;20214;-65
2023/06/13 04:40:13;;;;;;;7.43;4.80;;;;;;;17.30;51.89;100237.50;5060213;28;20574;-65
2023/06/13 04:42:47;;;;;;;6.83;4.53;;;;;;;17.26;52.32;100242.94;5076077;28;20208;-65
2023/06/13 04:45:15;;;;;;;7.40;4.80;;;;;;;17.35;51.74;100242.78;5082080;28;20619;-65
2023/06/13 04:47:45;;;;;;;6.43;4.47;;;;;;;17.50;51.09;100256.78;5069781;28;20237;-65
2023/06/13 04:50:25;;;;;;;5.63;4.30;;;;;;;17.47;51.42;100247.94;5061412;28;20290;-65
2023/06/13 04:52:53;;;;;;;7.67;4.80;;;;;;;17.55;51.28;100252.22;5066447;28;20203;-65
2023/06/13 04:55:22;;;;;;;9.00;4.80;;;;;;;17.65;51.30;100246.75;5070129;28;20210;-65
2023/06/13 04:57:50;;;;;;;6.23;4.73;;;;;;;17.70;51.04;100260.97;5071216;28;20233;-65
2023/06/13 05:00:17;;;;;;;6.70;4.60;;;;;;;17.73;51.06;100255.56;5077001;28;20278;-65
2023/06/13 05:02:45;;;;;;;5.53;4.30;;;;;;;17.77;51.10;100257.25;5070184;28;20289;-65
2023/06/13 05:05:14;;;;;;;6.57;4.50;;;;;;;17.80;51.13;100268.81;5073394;28;20194;-65
2023/06/13 05:07:40;;;;;;;6.03;4.53;;;;;;;17.89;51.10;100272.22;5078991;28;20293;-65
2023/06/13 05:10:08;;;;;;;6.53;4.80;;;;;;;17.86;51.10;100273.16;5068436;28;20198;-65
2023/06/13 05:12:37;;;;;;;5.83;4.50;;;;;;;17.90;51.29;100274.00;5078738;28;20200;-65
2023/06/13 05:15:04;;;;;;;5.83;4.60;;;;;;;17.97;51.40;100270.28;5074877;28;20220;-65
2023/06/13 05:17:31;;;;;;;8.40;4.50;;;;;;;18.04;51.28;100272.84;5074723;22;20224;-66
2023/06/13 05:19:57;;;;;;;9.00;4.80;;;;;;;18.07;49.83;100269.22;5037239;28;20245;-66
2023/06/13 05:22:24;;;;;;;7.20;4.77;;;;;;;18.15;51.04;100273.50;5048456;28;20469;-66
2023/06/13 05:24:50;;;;;;;7.83;5.10;;;;;;;18.16;51.26;100277.94;5049378;28;20210;-66
2023/06/13 05:27:17;;;;;;;9.13;4.87;;;;;;;18.35;49.67;100277.56;5047638;28;20225;-66
2023/06/13 05:29:43;;;;;;;17.60;5.87;;;;;;;18.63;49.00;100277.94;5048441;28;20298;-66
2023/06/13 05:32:10;;;;;;;11.00;4.90;;;;;;;19.45;46.50;100276.03;5037371;28;20195;-66
2023/06/13 05:34:36;;;;;;;11.50;4.50;;;;;;;19.52;46.24;100280.31;5049509;28;20214;-66
2023/06/13 05:37:10;;;;;;;9.33;4.20;;;;;;;19.38;46.07;100280.69;5027301;28;20229;-68
2023/06/13 05:39:38;;;;;;;16.13;4.97;;;;;;;19.22;45.86;100284.66;5036783;28;20223;-69
2023/06/13 05:42:05;;;;;;;15.03;5.00;;;;;;;19.23;45.82;100282.84;5042892;28;20404;-68
2023/06/13 05:44:31;;;;;;;13.47;5.30;;;;;;;19.19;46.22;100287.38;5037816;28;20198;-69
2023/06/13 05:46:57;;;;;;;11.43;5.17;;;;;;;19.37;45.69;100289.66;5034380;28;20215;-68
2023/06/13 05:49:24;;;;;;;11.13;4.90;;;;;;;19.58;45.39;100284.69;5034235;28;20199;-66
2023/06/13 05:51:52;;;;;;;6.83;4.30;;;;;;;19.59;45.13;100284.66;5035820;28;20195;-65
2023/06/13 05:54:19;;;;;;;14.93;5.50;;;;;;;19.64;45.26;100287.25;5033832;28;20227;-66
2023/06/13 05:56:46;;;;;;;9.50;4.80;;;;;;;19.71;44.92;100283.47;5025622;28;21147;-66
2023/06/13 05:59:14;;;;;;;7.13;4.40;;;;;;;19.74;44.70;100279.84;5043538;28;20200;-66
2023/06/13 06:01:42;;;;;;;11.20;4.40;;;;;;;19.73;44.73;100283.44;5047382;28;20203;-66
2023/06/13 06:04:08;;;;;;;11.97;4.93;;;;;;;19.74;44.98;100288.78;5041871;28;20221;-66
2023/06/13 06:06:35;;;;;;;11.63;4.60;;;;;;;19.71;44.61;100287.06;5037379;28;20636;-66
2023/06/13 06:09:02;;;;;;;11.93;4.93;;;;;;;19.66;45.00;100288.97;5052578;28;20202;-66
2023/06/13 06:11:29;;;;;;;9.10;4.63;;;;;;;19.73;45.38;100288.81;5048665;28;20321;-66
2023/06/13 06:13:56;;;;;;;8.37;4.33;;;;;;;19.77;45.14;100293.19;5046362;28;20199;-66
2023/06/13 06:16:22;;;;;;;9.50;4.73;;;;;;;19.79;44.85;100296.72;5041872;28;20233;-66
2023/06/13 06:18:50;;;;;;;16.30;5.07;;;;;;;19.98;44.72;100296.19;5042740;28;20215;-66
2023/06/13 06:21:17;;;;;;;9.53;4.27;;;;;;;20.11;43.27;100296.75;5044203;28;20235;-66
2023/06/13 06:23:43;;;;;;;9.60;4.30;;;;;;;20.26;43.53;100290.94;5046531;28;20199;-69
2023/06/13 06:26:10;;;;;;;6.37;4.60;;;;;;;20.49;42.48;100286.78;5051345;28;20278;-66
2023/06/13 06:28:37;;;;;;;7.83;4.80;;;;;;;20.44;42.33;100294.97;5049825;28;20191;-66
2023/06/13 06:31:05;;;;;;;7.63;4.37;;;;;;;20.40;42.82;100293.28;5030240;28;20203;-66
2023/06/13 06:33:31;;;;;;;7.83;4.30;;;;;;;20.39;42.09;100285.22;5040972;28;20190;-66
2023/06/13 06:35:58;;;;;;;9.87;4.40;;;;;;;20.38;42.71;100289.72;5045228;28;20636;-66
2023/06/13 06:38:24;;;;;;;6.57;4.23;;;;;;;20.47;42.35;100286.81;5049735;28;20708;-66
2023/06/13 06:40:51;;;;;;;7.20;4.47;;;;;;;20.54;42.82;100285.72;5050393;28;20261;-66
2023/06/13 06:43:17;;;;;;;5.07;4.07;;;;;;;20.51;42.10;100293.88;5046902;28;20233;-66
2023/06/13 06:45:44;;;;;;;7.97;4.53;;;;;;;20.55;41.57;100290.16;5020227;28;20195;-66
2023/06/13 06:48:12;;;;;;;8.90;4.23;;;;;;;20.58;42.35;100298.16;5049478;28;20222;-66
2023/06/13 06:50:38;;;;;;;6.97;4.73;;;;;;;20.57;41.63;100287.44;5043941;28;20198;-66
2023/06/13 06:53:04;;;;;;;9.60;4.82;;;;;;;20.65;41.82;100288.06;5031881;28;20207;-67
2023/06/13 06:55:31;;;;;;;6.70;4.22;;;;;;;20.82;41.78;100290.28;5046672;28;20253;-67
2023/06/13 06:57:57;;;;;;;10.13;4.40;;;;;;;20.94;41.56;100288.09;5044934;28;20214;-68
2023/06/13 07:00:24;;;;;;;8.15;4.32;;;;;;;21.21;40.67;100288.13;5012481;28;20592;-67
2023/06/13 07:02:51;;;;;;;5.63;4.32;;;;;;;21.30;39.46;100287.03;5029951;28;20207;-67
2023/06/13 07:05:18;;;;;;;9.25;4.30;;;;;;;21.42;40.76;100284.81;5030534;28;20191;-67
2023/06/13 07:07:44;;;;;;;10.55;4.47;;;;;;;22.24;38.36;100294.59;5029771;28;20233;-67
2023/06/13 07:10:11;;;;;;;6.95;4.63;;;;;;;24.07;34.63;100295.47;5028536;28;20610;-67
2023/06/13 07:12:39;;;;;;;6.28;4.18;;;;;;;26.26;30.51;100277.72;5036264;28;20211;-67
2023/06/13 07:15:06;;;;;;;7.80;4.22;;;;;;;28.71;26.93;100275.22;5037492;28;20231;-66
2023/06/13 07:17:33;;;;;;;11.38;4.40;;;;;;;29.03;25.70;100275.06;5040009;28;20301;-67
2023/06/13 07:19:59;;;;;;;12.68;4.40;;;;;;;29.16;25.39;100276.00;5037989;28;20195;-67
2023/06/13 07:22:26;;;;;;;6.72;4.13;;;;;;;29.59;24.62;100281.38;5032299;28;20215;-67
2023/06/13 07:24:52;;;;;;;7.18;4.32;;;;;;;29.82;24.54;100288.91;5032205;28;20222;-66
2023/06/13 07:27:19;;;;;;;7.75;4.88;;;;;;;30.80;23.37;100293.88;5044434;28;20284;-66
2023/06/13 07:29:45;;;;;;;10.52;4.70;;;;;;;31.48;22.59;100287.09;5047297;28;20205;-66
2023/06/13 07:32:12;;;;;;;7.50;4.15;;;;;;;31.20;22.51;100281.94;5037385;28;20206;-66
2023/06/13 07:34:39;;;;;;;7.72;4.72;;;;;;;31.73;21.98;100298.00;5048112;28;20579;-66
2023/06/13 07:37:25;;;;;;;7.10;4.30;;;;;;;32.28;21.94;100295.63;5033794;28;20313;-65
2023/06/13 07:39:52;;;;;;;11.77;4.07;;;;;;;31.74;22.00;100302.47;5045951;28;20665;-66
2023/06/13 07:42:18;;;;;;;14.57;4.70;;;;;;;31.29;22.35;100294.97;5033078;28;20195;-66
2023/06/13 07:44:45;;;;;;;6.30;4.45;;;;;;;29.87;23.60;100286.72;5031830;28;20559;-66
2023/06/13 07:47:11;;;;;;;8.38;4.28;;;;;;;29.60;24.43;100291.31;5038154;28;20216;-66
2023/06/13 07:49:38;;;;;;;7.70;4.50;;;;;;;29.32;24.84;100287.69;5043760;28;20305;-66
2023/06/13 07:52:05;;;;;;;12.25;5.13;;;;;;;29.59;24.71;100290.44;5047194;28;20202;-65
2023/06/13 07:54:31;;;;;;;7.43;4.30;;;;;;;28.65;25.75;100285.66;5038326;28;20285;-66
2023/06/13 07:56:57;;;;;;;11.48;4.45;;;;;;;28.63;25.83;100276.69;5017002;28;20234;-66
2023/06/13 07:59:26;;;;;;;8.98;4.65;;;;;;;28.37;26.28;100279.19;5032875;28;20761;-65
2023/06/13 08:01:53;;;;;;;6.18;4.85;;;;;;;28.61;25.82;100276.78;5034608;28;20203;-65
2023/06/13 08:04:19;;;;;;;6.97;4.40;;;;;;;28.75;25.80;100270.47;5032577;28;20648;-65
2023/06/13 08:06:46;;;;;;;8.90;4.60;;;;;;;27.87;26.84;100278.66;5040974;28;20254;-65
2023/06/13 08:09:12;;;;;;;5.18;4.45;;;;;;;27.56;27.07;100261.38;5041790;28;20203;-65
2023/06/13 08:11:39;;;;;;;6.40;4.28;;;;;;;27.50;27.20;100256.28;5035789;28;20698;-70
2023/06/13 08:14:07;;;;;;;7.20;4.80;;;;;;;27.63;27.69;100256.50;5032670;28;20567;-71
2023/06/13 08:16:36;;;;;;;9.10;4.18;;;;;;;28.68;26.06;100258.19;5034849;28;20227;-66
2023/06/13 08:19:04;;;;;;;6.25;4.40;;;;;;;28.16;25.88;100271.44;5032720;28;20199;-66
2023/06/13 08:21:31;;;;;;;5.53;4.32;;;;;;;27.92;26.10;100265.63;5045488;28;20294;-66
2023/06/13 08:23:59;;;;;;;8.77;4.20;;;;;;;28.04;26.33;100256.75;5035756;28;20298;-65
2023/06/13 08:26:32;;;;;;;9.85;3.85;;;;;;;27.71;26.96;100246.91;5038470;28;20214;-66
2023/06/13 08:29:02;;;;;;;8.85;5.05;;;;;;;27.73;27.33;100247.69;5038682;28;20199;-66
2023/06/13 08:31:31;;;;;;;8.15;4.28;;;;;;;27.48;26.86;100244.63;5046322;28;20195;-67
2023/06/13 08:34:01;;;;;;;5.82;4.05;;;;;;;27.32;27.51;100249.22;5033045;28;20291;-67
2023/06/13 08:36:36;;;;;;;8.45;3.83;;;;;;;26.77;26.73;100255.03;5041827;28;20218;-68
2023/06/13 08:39:06;;;;;;;9.20;4.30;;;;;;;25.57;28.12;100267.66;5043090;28;20571;-68
2023/06/13 08:41:33;;;;;;;6.20;3.80;;;;;;;24.99;29.28;100252.44;5038245;28;20203;-68
2023/06/13 08:43:59;;;;;;;7.63;4.45;;;;;;;24.75;30.01;100247.28;5034069;28;20199;-68
2023/06/13 08:46:26;;;;;;;10.77;3.92;;;;;;;25.04;30.86;100243.22;5030127;28;20251;-67
2023/06/13 08:48:53;;;;;;;7.45;4.15;;;;;;;25.31;29.93;100250.00;5031360;28;20616;-68
2023/06/13 08:51:22;;;;;;;5.53;4.53;;;;;;;25.28;29.11;100250.16;5032358;28;20249;-68
2023/06/13 08:53:51;;;;;;;9.23;4.68;;;;;;;24.91;29.83;100249.22;5050399;28;20195;-68
2023/06/13 08:56:21;;;;;;;6.05;3.92;;;;;;;24.82;29.82;100243.34;5048817;28;20246;-68
2023/06/13 08:59:00;;;;;;;11.68;4.57;;;;;;;24.83;30.46;100232.44;5067406;28;20293;-68
2023/06/13 09:01:27;;;;;;;9.98;4.22;;;;;;;24.86;29.60;100229.59;5032220;28;20218;-68
2023/06/13 09:03:56;;;;;;;5.05;4.18;;;;;;;25.21;28.83;100225.16;5051410;28;20202;-68
2023/06/13 09:06:24;;;;;;;9.82;4.45;;;;;;;25.33;27.77;100230.94;5050900;28;20217;-68
2023/06/13 09:08:56;;;;;;;6.90;4.30;;;;;;;24.83;28.62;100226.16;5054629;28;20242;-68
2023/06/13 09:11:23;;;;;;;9.05;4.57;;;;;;;25.20;28.53;100220.69;5046210;28;20210;-68
2023/06/13 09:13:53;;;;;;;7.85;4.00;;;;;;;25.41;27.63;100216.06;5053560;28;20199;-68
2023/06/13 09:16:20;;;;;;;4.72;4.22;;;;;;;25.47;27.06;100213.03;5057110;28;20218;-68
2023/06/13 09:18:49;;;;;;;19.83;5.70;;;;;;;25.70;26.26;100214.59;5055239;28;20253;-68
2023/06/13 09:21:17;;;;;;;11.30;4.22;;;;;;;25.50;28.08;100218.28;5048421;28;20202;-68
2023/06/13 09:23:46;;;;;;;11.82;3.90;;;;;;;25.40;27.52;100214.28;5044447;28;20199;-68
2023/06/13 09:26:14;;;;;;;6.65;4.05;;;;;;;25.26;27.32;100211.41;5050674;28;20465;-68
2023/06/13 09:28:42;;;;;;;4.97;3.92;;;;;;;25.33;27.00;100209.25;5046090;28;20201;-68
2023/06/13 09:31:10;;;;;;;6.47;3.88;;;;;;;25.15;27.18;100220.06;5055392;28;20194;-68
2023/06/13 09:33:37;;;;;;;9.60;3.88;;;;;;;25.19;27.48;100202.69;5064985;28;20202;-68
2023/06/13 09:36:09;;;;;;;7.85;4.07;;;;;;;25.27;28.16;100214.03;5048439;28;20199;-68
2023/06/13 09:38:41;;;;;;;9.40;4.18;;;;;;;25.52;27.01;100219.09;5056094;28;20228;-68
2023/06/13 09:41:10;;;;;;;9.73;4.80;;;;;;;25.66;27.82;100217.53;5053822;28;20199;-68
2023/06/13 09:43:37;;;;;;;4.88;4.18;;;;;;;25.29;27.83;100220.25;5047871;28;20275;-68
2023/06/13 09:46:04;;;;;;;8.40;4.07;;;;;;;25.33;28.09;100204.72;5038489;28;20715;-68
2023/06/13 09:48:31;;;;;;;8.93;4.75;;;;;;;25.55;28.43;100209.91;5047191;28;20222;-68
2023/06/13 09:51:03;;;;;;;11.45;4.55;;;;;;;25.85;28.04;100196.63;5059560;28;20198;-68
2023/06/13 09:53:30;;;;;;;11.77;4.30;;;;;;;26.05;26.81;100203.75;5049647;28;20198;-68
2023/06/13 09:55:56;;;;;;;6.28;3.95;;;;;;;26.11;25.37;100192.56;5040035;28;20655;-67
2023/06/13 09:58:24;;;;;;;6.57;4.28;;;;;;;26.34;25.74;100196.75;5029435;28;20454;-68
2023/06/13 10:00:59;;;;;;;6.20;4.22;;;;;;;26.32;25.55;100180.50;5035545;28;20203;-67
2023/06/13 10:03:28;;;;;;;9.38;4.60;;;;;;;26.50;25.06;100178.66;5035743;28;20214;-67
2023/06/13 10:05:57;;;;;;;6.63;3.83;;;;;;;26.26;25.88;100190.84;5026377;28;20290;-68
2023/06/13 10:08:24;;;;;;;6.60;4.20;;;;;;;25.78;25.03;100178.94;5037148;28;20219;-67
2023/06/13 10:10:50;;;;;;;9.55;4.18;;;;;;;25.96;25.43;100182.50;5040840;28;20224;-67
2023/06/13 10:13:24;;;;;;;10.27;4.40;;;;;;;26.12;26.61;100175.31;5042732;28;20218;-67
2023/06/13 10:15:53;;;;;;;4.80;4.18;;;;;;;26.35;25.79;100171.34;5042741;28;20202;-67
2023/06/13 10:18:21;;;;;;;5.35;4.13;;;;;;;26.65;25.94;100164.22;5037389;28;20247;-67
2023/06/13 10:20:48;;;;;;;7.88;4.05;;;;;;;26.64;25.27;100172.44;5036298;28;20204;-67
2023/06/13 10:23:18;;;;;;;6.93;4.22;;;;;;;26.47;25.23;100166.13;5039774;28;20207;-67
2023/06/13 10:25:52;;;;;;;8.15;4.18;;;;;;;26.73;25.36;100174.63;5040116;28;20273;-67
2023/06/13 10:28:27;;;;;;;7.75;4.90;;;;;;;26.24;25.74;100169.19;5032156;28;20249;-67
2023/06/13 10:31:12;;;;;;;5.40;4.60;;;;;;;26.11;25.63;100176.25;5044378;28;20720;-68
2023/06/13 10:33:56;;;;;;;8.02;4.15;;;;;;;26.30;26.65;100170.69;5044720;28;20288;-68
2023/06/13 10:37:09;;;;;;;15.05;5.22;;;;;;;26.62;26.41;100167.09;5037029;28;20732;-67
2023/06/13 10:40:13;;;;;;;6.47;4.25;;;;;;;27.05;25.58;100161.97;5040307;28;20206;-67
2023/06/13 10:42:46;;;;;;;9.65;4.40;;;;;;;27.13;24.48;100173.25;5044600;28;20199;-67
2023/06/13 10:45:16;;;;;;;4.85;4.07;;;;;;;26.59;24.83;100164.56;5032919;28;20207;-67
2023/06/13 10:47:42;;;;;;;7.20;4.28;;;;;;;26.60;24.45;100157.28;5043338;28;20221;-67
2023/06/13 10:50:14;;;;;;;7.15;4.60;;;;;;;26.77;24.70;100159.91;5036927;28;20199;-67
2023/06/13 10:52:48;;;;;;;7.72;4.47;;;;;;;26.73;24.64;100166.50;5039309;28;20206;-67
2023/06/13 10:55:25;;;;;;;6.82;4.10;;;;;;;26.34;25.45;100158.72;5041277;28;20222;-67
2023/06/13 10:57:56;;;;;;;5.82;4.20;;;;;;;26.54;26.15;100150.38;5043530;28;20226;-67
2023/06/13 11:00:37;;;;;;;6.35;3.85;;;;;;;26.44;25.10;100150.00;5039839;28;20199;-67
2023/06/13 11:03:11;;;;;;;6.10;4.00;;;;;;;26.83;25.69;100151.44;5039635;28;20205;-67
2023/06/13 11:06:05;;;;;;;5.35;4.20;;;;;;;26.85;24.37;100146.78;5040512;28;20213;-67
2023/06/13 11:08:32;;;;;;;5.57;4.25;;;;;;;27.08;24.85;100149.06;5045373;28;20217;-67
2023/06/13 11:11:02;;;;;;;5.18;4.05;;;;;;;26.88;24.92;100134.88;5045020;28;20669;-67
2023/06/13 11:13:32;;;;;;;5.55;4.10;;;;;;;26.63;24.67;100130.81;5039130;28;20778;-67
2023/06/13 11:16:19;;;;;;;7.30;4.18;;;;;;;26.73;24.40;100134.75;5040995;28;20202;-67
2023/06/13 11:18:54;;;;;;;8.35;4.60;;;;;;;26.77;23.43;100136.34;5061983;23;20230;-65
2023/06/13 11:21:20;;;;;;;6.75;4.40;;;;;;;27.11;23.82;100142.56;5044858;28;20194;-65
2023/06/13 11:23:54;;;;;;;6.57;4.22;;;;;;;26.85;23.85;100128.63;5046745;28;20824;-65
2023/06/13 11:26:21;;;;;;;4.97;4.22;;;;;;;26.48;23.67;100129.88;5050843;28;20197;-69
2023/06/13 11:28:52;;;;;;;6.97;4.80;;;;;;;26.45;24.21;100127.31;5047038;28;20294;-64
2023/06/13 11:31:20;;;;;;;5.53;4.30;;;;;;;26.56;23.31;100133.97;5048962;28;20199;-67
2023/06/13 11:33:51;;;;;;;6.60;4.18;;;;;;;26.21;23.87;100129.50;5033055;28;20246;-67